Time;durP1;ratioP1;P1;durP2;ratioP2;P2;SDS_P1;SDS_P2;PMS_P1;PMS_P2;Temp;Humidity;BMP_temperature;BMP_pressure;BME280_temperature;BME280_humidity;BME280_pressure;Samples;Min_cycle;Max_cycle;Signal;HPM_P1;HPM_P2
2023/01/14 00:00:24;;;;;;;93.73;52.47;;;6.60;99.90;;;;;;5117484;28;20258;-84
2023/01/14 00:02:50;;;;;;;95.83;54.77;;;6.60;99.90;;;;;;5115535;28;20875;-84
2023/01/14 00:05:16;;;;;;;104.70;58.17;;;6.50;99.90;;;;;;5117370;27;20176;-84
2023/01/14 00:07:42;;;;;;;97.25;56.08;;;6.60;99.90;;;;;;5115428;28;20660;-84
2023/01/14 00:10:08;;;;;;;96.40;52.17;;;6.60;99.90;;;;;;5116822;28;20172;-84
2023/01/14 00:12:34;;;;;;;105.25;56.00;;;6.60;99.90;;;;;;5116744;28;20194;-82
2023/01/14 00:15:00;;;;;;;95.37;53.10;;;6.60;99.90;;;;;;5117216;28;20179;-84
2023/01/14 00:17:25;;;;;;;99.37;51.90;;;6.60;99.90;;;;;;5115468;28;20195;-84
2023/01/14 00:19:51;;;;;;;106.40;54.97;;;6.60;99.90;;;;;;5117893;28;20176;-84
2023/01/14 00:22:16;;;;;;;101.67;54.13;;;6.60;99.90;;;;;;5115973;28;20242;-84
2023/01/14 00:24:42;;;;;;;101.40;57.03;;;6.70;99.90;;;;;;5115287;28;20577;-83
2023/01/14 00:27:07;;;;;;;99.70;55.93;;;6.70;99.90;;;;;;5115162;28;20176;-83
2023/01/14 00:29:35;;;;;;;107.20;58.07;;;6.70;99.90;;;;;;5115221;28;20184;-84
2023/01/14 00:32:03;;;;;;;101.82;58.85;;;6.70;99.90;;;;;;5116369;28;20168;-84
2023/01/14 00:34:29;;;;;;;103.40;53.05;;;6.70;99.90;;;;;;5116193;28;20237;-84
2023/01/14 00:36:56;;;;;;;102.65;55.83;;;6.70;99.90;;;;;;5116408;28;20172;-84
2023/01/14 00:39:22;;;;;;;96.50;51.95;;;6.70;99.90;;;;;;5115099;28;20629;-84
2023/01/14 00:41:47;;;;;;;102.20;56.10;;;6.70;99.90;;;;;;5115255;28;20175;-82
2023/01/14 00:44:14;;;;;;;90.93;53.70;;;6.60;99.90;;;;;;5115988;28;20548;-85
2023/01/14 00:46:41;;;;;;;102.95;52.83;;;6.60;99.90;;;;;;5116168;28;20567;-84
2023/01/14 00:49:12;;;;;;;92.35;52.40;;;6.60;99.90;;;;;;5115943;28;20203;-84
2023/01/14 00:51:38;;;;;;;104.28;54.70;;;6.60;99.90;;;;;;5116035;28;20179;-83
2023/01/14 00:54:04;;;;;;;109.13;56.60;;;6.70;99.90;;;;;;5114786;28;20211;-85
2023/01/14 00:56:30;;;;;;;101.90;53.90;;;6.70;99.90;;;;;;5114807;28;20480;-84
2023/01/14 00:58:56;;;;;;;103.53;54.97;;;6.70;99.90;;;;;;5114707;28;20218;-84
2023/01/14 01:01:22;;;;;;;99.73;51.97;;;6.70;99.90;;;;;;5115845;28;20171;-83
2023/01/14 01:03:53;;;;;;;95.30;53.43;;;6.70;99.90;;;;;;5114408;28;20544;-84
2023/01/14 01:06:21;;;;;;;101.13;52.53;;;6.60;99.90;;;;;;5115975;28;20633;-84
2023/01/14 01:08:48;;;;;;;98.75;51.83;;;6.70;99.90;;;;;;5114442;28;20249;-84
2023/01/14 01:11:15;;;;;;;103.40;54.47;;;6.60;99.90;;;;;;5117517;28;20655;-84
2023/01/14 01:13:40;;;;;;;97.97;52.25;;;6.60;99.90;;;;;;5115340;28;20196;-84
2023/01/14 01:16:14;;;;;;;92.53;52.87;;;6.50;99.90;;;;;;5115587;28;20179;-82
2023/01/14 01:18:40;;;;;;;93.13;51.53;;;6.50;99.90;;;;;;5115827;28;20720;-85
2023/01/14 01:21:17;;;;;;;96.30;49.40;;;6.50;99.90;;;;;;5115846;28;20168;-83
2023/01/14 01:23:44;;;;;;;95.32;52.15;;;6.50;99.90;;;;;;5115229;28;20251;-84
2023/01/14 01:26:13;;;;;;;89.15;49.38;;;6.40;99.90;;;;;;5114204;28;20197;-84
2023/01/14 01:28:39;;;;;;;95.78;51.28;;;6.40;99.90;;;;;;5113943;28;20660;-84
2023/01/14 01:31:09;;;;;;;98.17;51.10;;;6.30;99.90;;;;;;5114077;28;20190;-82
2023/01/14 01:33:35;;;;;;;92.07;50.05;;;6.40;99.90;;;;;;5114686;28;20451;-84
2023/01/14 01:36:03;;;;;;;87.93;48.00;;;6.40;99.90;;;;;;5115276;28;20629;-83
2023/01/14 01:38:30;;;;;;;95.60;50.65;;;6.50;99.90;;;;;;5113793;28;20653;-84
2023/01/14 01:40:56;;;;;;;84.47;49.65;;;6.30;99.90;;;;;;5113944;28;20176;-83
2023/01/14 01:43:24;;;;;;;83.53;45.25;;;6.40;99.90;;;;;;5115004;28;20214;-84
2023/01/14 01:45:51;;;;;;;82.63;45.67;;;6.40;99.90;;;;;;5115320;28;20195;-83
2023/01/14 01:48:18;;;;;;;81.85;44.30;;;6.50;99.90;;;;;;5113524;28;20199;-84
2023/01/14 01:50:48;;;;;;;79.88;47.10;;;6.50;99.90;;;;;;5113639;28;20172;-82
2023/01/14 01:53:15;;;;;;;81.70;44.80;;;6.60;99.90;;;;;;5114812;28;20188;-84
2023/01/14 01:55:45;;;;;;;80.70;45.05;;;6.60;99.90;;;;;;5113211;28;20259;-84
2023/01/14 01:58:12;;;;;;;99.18;48.53;;;6.70;99.90;;;;;;5113352;28;20192;-84
2023/01/14 02:00:38;;;;;;;83.38;46.67;;;6.70;99.90;;;;;;5114870;28;20640;-83
2023/01/14 02:03:10;;;;;;;76.23;44.27;;;6.80;99.90;;;;;;5114848;28;20211;-84
2023/01/14 02:05:36;;;;;;;82.97;45.47;;;6.80;99.90;;;;;;5113771;28;20499;-83
2023/01/14 02:08:03;;;;;;;76.07;44.07;;;6.80;99.90;;;;;;5113388;28;20332;-84
2023/01/14 02:10:40;;;;;;;71.20;42.38;;;6.90;99.90;;;;;;5113630;28;20234;-84
2023/01/14 02:13:30;;;;;;;76.13;41.25;;;6.90;99.90;;;;;;5114696;28;20560;-84
2023/01/14 02:16:29;;;;;;;68.40;40.38;;;6.90;99.90;;;;;;5113413;28;20194;-85
2023/01/14 02:19:08;;;;;;;83.15;43.70;;;6.90;99.90;;;;;;5107058;28;20701;-83
2023/01/14 02:21:47;;;;;;;70.57;42.88;;;6.90;99.90;;;;;;5113346;28;20515;-84
2023/01/14 02:24:49;;;;;;;75.72;43.70;;;6.80;99.90;;;;;;5115525;28;20737;-83
2023/01/14 02:27:36;;;;;;;74.15;42.63;;;6.90;99.90;;;;;;5114345;28;20696;-84
2023/01/14 02:30:16;;;;;;;74.82;42.70;;;6.90;99.90;;;;;;5115706;28;20186;-83
2023/01/14 02:32:54;;;;;;;75.13;43.13;;;6.90;99.90;;;;;;5114054;28;20605;-84
2023/01/14 02:35:41;;;;;;;72.30;42.33;;;6.90;99.90;;;;;;5113467;28;20210;-83
2023/01/14 02:38:07;;;;;;;76.13;43.78;;;6.90;99.90;;;;;;5112829;28;20291;-84
2023/01/14 02:40:51;;;;;;;76.30;40.42;;;6.90;99.90;;;;;;5113109;28;20180;-83
2023/01/14 02:46:46;;;;;;;64.05;40.20;;;6.90;99.90;;;;;;5118359;28;20162;-85
2023/01/14 02:49:16;;;;;;;74.03;42.40;;;6.90;99.90;;;;;;5117113;28;20203;-82
2023/01/14 02:51:44;;;;;;;88.35;43.42;;;6.90;99.90;;;;;;5118244;28;20175;-83
2023/01/14 02:54:11;;;;;;;84.32;47.97;;;6.90;99.90;;;;;;5119553;28;20206;-84
2023/01/14 02:56:38;;;;;;;81.63;46.38;;;6.90;99.90;;;;;;5117561;28;20318;-84
2023/01/14 02:59:10;;;;;;;81.32;46.42;;;6.80;99.90;;;;;;5118409;28;20195;-84
2023/01/14 03:01:35;;;;;;;77.32;43.65;;;6.80;99.90;;;;;;5118124;28;20632;-83
2023/01/14 03:04:29;;;;;;;79.33;44.63;;;6.70;99.90;;;;;;5118237;28;20231;-84
2023/01/14 03:07:09;;;;;;;74.57;45.05;;;6.70;99.90;;;;;;5118106;28;20600;-84
2023/01/14 03:09:48;;;;;;;70.68;42.88;;;6.70;99.90;;;;;;5118386;28;20232;-84
2023/01/14 03:12:42;;;;;;;73.00;43.30;;;6.70;99.90;;;;;;5116731;28;20195;-84
2023/01/14 03:15:24;;;;;;;73.95;43.22;;;6.70;99.90;;;;;;5113624;28;20203;-84
2023/01/14 03:18:14;;;;;;;74.78;42.70;;;6.70;99.90;;;;;;5116504;28;20200;-83
2023/01/14 03:20:43;;;;;;;68.63;42.55;;;6.70;99.90;;;;;;5118753;28;20180;-84
2023/01/14 03:23:13;;;;;;;75.45;41.60;;;6.70;99.90;;;;;;5118193;28;20676;-84
2023/01/14 03:25:42;;;;;;;75.85;43.22;;;6.80;99.90;;;;;;5118830;27;20203;-84
2023/01/14 03:28:14;;;;;;;85.55;45.25;;;6.70;99.90;;;;;;5118727;28;20720;-84
2023/01/14 03:30:45;;;;;;;70.82;39.10;;;6.80;99.90;;;;;;5116443;28;20207;-84
2023/01/14 03:33:18;;;;;;;72.43;41.85;;;6.70;99.90;;;;;;5117425;28;20245;-82
2023/01/14 03:35:47;;;;;;;82.13;47.28;;;6.60;99.90;;;;;;5117629;28;20251;-84
2023/01/14 03:38:18;;;;;;;77.53;43.58;;;6.50;99.90;;;;;;5116270;28;20192;-84
2023/01/14 03:44:14;;;;;;;77.68;44.20;;;6.50;99.90;;;;;;5117831;28;20238;-84
2023/01/14 03:46:40;;;;;;;70.60;43.58;;;6.50;99.90;;;;;;5116064;28;20178;-84
2023/01/14 03:49:05;;;;;;;81.03;43.78;;;6.60;99.90;;;;;;5117343;28;20606;-84
2023/01/14 03:51:49;;;;;;;87.60;47.50;;;6.60;99.90;;;;;;5115939;28;20172;-82
2023/01/14 03:54:34;;;;;;;83.30;45.83;;;6.60;99.90;;;;;;5117565;28;20172;-83
2023/01/14 03:57:21;;;;;;;81.63;45.58;;;6.70;99.90;;;;;;5119296;28;20645;-84
2023/01/14 03:59:57;;;;;;;74.20;43.53;;;6.70;99.90;;;;;;5115936;28;20171;-83
2023/01/14 04:02:24;;;;;;;74.57;45.40;;;6.70;99.90;;;;;;5115718;28;20191;-84
2023/01/14 04:04:51;;;;;;;79.68;46.97;;;6.70;99.90;;;;;;5117251;28;20679;-83
2023/01/14 04:07:17;;;;;;;88.75;45.75;;;6.60;99.90;;;;;;5115668;28;20234;-84
2023/01/14 04:09:43;;;;;;;81.70;46.97;;;6.60;99.90;;;;;;5115816;28;20631;-84
2023/01/14 04:12:09;;;;;;;87.00;45.50;;;6.50;99.90;;;;;;5115766;28;20238;-82
2023/01/14 04:17:19;;;;;;;96.47;53.67;;;6.50;99.90;;;;;;5117031;28;20205;-84
2023/01/14 04:19:44;;;;;;;113.50;53.43;;;6.50;99.90;;;;;;5116113;28;20180;-83
2023/01/14 04:22:10;;;;;;;104.53;55.90;;;6.50;99.90;;;;;;5116657;28;20195;-83
2023/01/14 04:24:37;;;;;;;99.53;51.53;;;6.50;99.90;;;;;;5119199;28;20682;-87
2023/01/14 04:27:03;;;;;;;78.10;47.00;;;6.40;99.90;;;;;;5116537;28;20180;-84
2023/01/14 04:29:28;;;;;;;88.13;46.30;;;6.40;99.90;;;;;;5116760;28;20217;-84
2023/01/14 04:31:55;;;;;;;114.70;56.83;;;6.40;99.90;;;;;;5116418;28;20172;-84
2023/01/14 04:34:20;;;;;;;100.05;51.75;;;6.50;99.90;;;;;;5115226;28;20233;-84
2023/01/14 04:36:46;;;;;;;96.10;51.20;;;6.50;99.90;;;;;;5115062;28;20553;-82
2023/01/14 04:39:12;;;;;;;100.73;51.43;;;6.40;99.90;;;;;;5114985;28;20199;-83
2023/01/14 04:44:22;;;;;;;98.47;51.08;;;6.40;99.90;;;;;;5116456;28;20565;-84
2023/01/14 04:46:47;;;;;;;104.13;53.60;;;6.40;99.90;;;;;;5114967;28;20180;-83
2023/01/14 04:49:13;;;;;;;104.33;54.50;;;6.40;99.90;;;;;;5116133;28;20292;-83
2023/01/14 04:51:39;;;;;;;94.50;51.77;;;6.30;99.90;;;;;;5114812;28;20190;-84
2023/01/14 04:54:04;;;;;;;93.10;52.53;;;6.40;99.90;;;;;;5114757;28;20537;-83
2023/01/14 04:56:30;;;;;;;127.90;66.27;;;6.40;99.90;;;;;;5116134;28;20230;-83
2023/01/14 04:59:01;;;;;;;119.80;59.80;;;6.50;99.90;;;;;;5114619;28;20653;-83
2023/01/14 05:01:27;;;;;;;95.82;52.90;;;6.50;99.90;;;;;;5115980;28;20167;-83
2023/01/14 05:03:54;;;;;;;86.78;47.78;;;6.50;99.90;;;;;;5118039;28;20223;-84
2023/01/14 05:06:20;;;;;;;79.93;46.78;;;6.50;99.90;;;;;;5116872;28;20183;-84
2023/01/14 05:08:47;;;;;;;74.50;43.87;;;6.50;99.90;;;;;;5113730;28;20290;-84
2023/01/14 05:11:13;;;;;;;80.63;43.55;;;6.50;99.90;;;;;;5114451;28;20925;-84
2023/01/14 05:13:39;;;;;;;82.22;45.75;;;6.50;99.90;;;;;;5115567;28;20611;-85
2023/01/14 05:16:05;;;;;;;78.83;44.60;;;6.50;99.90;;;;;;5115643;27;20214;-82
2023/01/14 05:18:31;;;;;;;78.88;44.88;;;6.50;99.90;;;;;;5115373;28;20191;-83
2023/01/14 05:20:56;;;;;;;76.20;43.13;;;6.50;99.90;;;;;;5115831;28;20229;-84
2023/01/14 05:23:22;;;;;;;73.30;42.87;;;6.40;99.90;;;;;;5115388;28;20211;-84
2023/01/14 05:25:50;;;;;;;68.47;40.63;;;6.40;99.90;;;;;;5115502;28;20187;-83
2023/01/14 05:28:17;;;;;;;70.82;42.88;;;6.40;99.90;;;;;;5114005;28;20199;-83
2023/01/14 05:30:43;;;;;;;78.05;41.72;;;6.40;99.90;;;;;;5115476;28;20167;-83
2023/01/14 05:33:09;;;;;;;91.97;47.83;;;6.30;99.90;;;;;;5115314;28;20200;-82
2023/01/14 05:35:36;;;;;;;122.20;61.50;;;6.20;99.90;;;;;;5114118;28;20190;-83
2023/01/14 05:38:04;;;;;;;171.80;79.00;;;6.10;99.90;;;;;;5116726;28;21008;-85
2023/01/14 05:40:30;;;;;;;151.45;74.32;;;6.20;99.90;;;;;;5115677;28;20593;-83
2023/01/14 05:45:48;;;;;;;91.57;50.83;;;6.30;99.90;;;;;;5115607;28;20179;-84
2023/01/14 05:48:22;;;;;;;94.68;51.55;;;6.30;99.90;;;;;;5115385;28;20287;-84
2023/01/14 05:50:53;;;;;;;95.28;48.50;;;6.20;99.90;;;;;;5114143;28;20171;-83
2023/01/14 05:53:19;;;;;;;86.57;49.20;;;6.20;99.90;;;;;;5115141;28;20194;-84
2023/01/14 05:55:46;;;;;;;88.55;50.83;;;6.20;99.90;;;;;;5113805;28;20231;-84
2023/01/14 05:58:12;;;;;;;87.80;48.92;;;6.20;99.90;;;;;;5114921;28;20219;-84
2023/01/14 06:06:28;;;;;;;104.63;55.80;;;6.20;99.90;;;;;;5115249;28;20180;-83
2023/01/14 06:09:06;;;;;;;87.28;49.83;;;6.30;99.90;;;;;;5114800;28;20560;-82
2023/01/14 06:11:32;;;;;;;94.18;49.30;;;6.30;99.90;;;;;;5114796;28;20651;-84
2023/01/14 06:13:59;;;;;;;93.97;48.72;;;6.30;99.90;;;;;;5113353;28;20668;-84
2023/01/14 06:16:27;;;;;;;97.15;49.00;;;6.20;99.90;;;;;;5113274;28;20680;-84
2023/01/14 06:18:53;;;;;;;87.57;49.67;;;6.20;99.90;;;;;;5114942;28;20680;-83
2023/01/14 06:21:21;;;;;;;90.60;49.40;;;6.10;99.90;;;;;;5113783;28;20172;-84
2023/01/14 06:23:47;;;;;;;91.32;51.75;;;6.10;99.90;;;;;;5113102;28;20318;-83
2023/01/14 06:26:18;;;;;;;96.50;54.25;;;6.10;99.90;;;;;;5113148;28;20179;-82
2023/01/14 06:28:44;;;;;;;135.38;67.38;;;6.20;99.90;;;;;;5113058;28;20610;-85
2023/01/14 06:31:16;;;;;;;134.32;65.95;;;6.30;99.90;;;;;;5113190;28;20178;-83
2023/01/14 06:33:43;;;;;;;135.20;66.03;;;6.20;99.90;;;;;;5114270;28;20203;-83
2023/01/14 06:36:10;;;;;;;131.80;69.30;;;6.20;99.90;;;;;;5114235;28;20195;-83
2023/01/14 06:38:37;;;;;;;165.32;78.88;;;6.20;99.90;;;;;;5114056;28;20204;-84
2023/01/14 06:41:04;;;;;;;139.80;68.40;;;6.30;99.90;;;;;;5114359;28;20175;-83
2023/01/14 06:43:31;;;;;;;125.05;63.58;;;6.30;99.90;;;;;;5114101;28;20699;-84
2023/01/14 06:45:57;;;;;;;131.32;66.32;;;6.20;99.90;;;;;;5114105;28;20213;-84
2023/01/14 06:48:24;;;;;;;129.80;67.50;;;6.30;99.90;;;;;;5113973;28;20202;-85
2023/01/14 06:50:50;;;;;;;124.60;66.57;;;6.30;99.90;;;;;;5114070;28;20715;-84
2023/01/14 06:53:17;;;;;;;128.38;66.47;;;6.30;99.90;;;;;;5114095;28;20206;-84
2023/01/14 06:55:43;;;;;;;136.98;68.68;;;6.30;99.90;;;;;;5113876;28;20592;-84
2023/01/14 06:58:09;;;;;;;121.10;66.40;;;6.30;99.90;;;;;;5114062;28;20266;-83
2023/01/14 07:00:34;;;;;;;143.10;69.97;;;6.30;99.90;;;;;;5114045;28;20389;-83
2023/01/14 07:03:02;;;;;;;119.20;65.50;;;6.40;99.90;;;;;;5112810;28;20456;-85
2023/01/14 07:05:28;;;;;;;124.25;66.25;;;6.40;99.90;;;;;;5113642;28;20621;-84
2023/01/14 07:07:53;;;;;;;113.67;60.77;;;6.40;99.90;;;;;;5112774;28;20195;-84
2023/01/14 07:10:19;;;;;;;118.47;59.60;;;6.50;99.90;;;;;;5114343;28;20412;-83
2023/01/14 07:12:46;;;;;;;128.97;64.83;;;6.40;99.90;;;;;;5112674;28;20204;-84
2023/01/14 07:15:13;;;;;;;161.65;88.65;;;6.30;99.90;;;;;;5114288;28;20176;-84
2023/01/14 07:17:39;;;;;;;161.73;84.60;;;6.20;99.90;;;;;;5112445;28;20557;-84
2023/01/14 07:20:07;;;;;;;141.73;80.27;;;6.20;99.90;;;;;;5113794;28;20187;-84
2023/01/14 07:22:33;;;;;;;175.07;90.88;;;6.20;99.90;;;;;;5113741;28;20225;-84
2023/01/14 07:25:01;;;;;;;155.30;81.30;;;6.40;99.90;;;;;;5114131;28;20246;-83
2023/01/14 07:27:29;;;;;;;143.45;77.93;;;6.50;99.90;;;;;;5112347;28;20418;-84
2023/01/14 07:29:56;;;;;;;135.15;71.18;;;6.50;99.90;;;;;;5114222;28;20176;-84
2023/01/14 07:32:22;;;;;;;139.13;70.55;;;6.50;99.90;;;;;;5115870;28;20690;-83
2023/01/14 07:34:48;;;;;;;123.93;68.75;;;6.50;99.90;;;;;;5117543;28;20705;-84
2023/01/14 07:37:14;;;;;;;132.43;70.35;;;6.50;99.90;;;;;;5116184;28;20241;-83
2023/01/14 07:39:39;;;;;;;122.53;64.33;;;6.50;99.90;;;;;;5117707;28;20184;-84
2023/01/14 07:42:05;;;;;;;118.07;62.33;;;6.50;99.90;;;;;;5117416;28;20182;-83
2023/01/14 07:44:31;;;;;;;112.63;60.90;;;6.60;99.90;;;;;;5117528;28;20216;-84
2023/01/14 07:46:57;;;;;;;111.93;57.27;;;6.60;99.90;;;;;;5117360;28;20168;-84
2023/01/14 07:49:23;;;;;;;109.33;55.83;;;6.60;99.90;;;;;;5116112;28;20228;-85
2023/01/14 07:51:49;;;;;;;106.18;55.08;;;6.60;99.90;;;;;;5115944;28;20453;-82
2023/01/14 07:54:16;;;;;;;94.33;54.07;;;6.60;99.90;;;;;;5116153;28;20191;-84
2023/01/14 07:56:41;;;;;;;96.00;53.45;;;6.60;99.90;;;;;;5117695;28;20268;-83
2023/01/14 07:59:08;;;;;;;93.60;51.80;;;6.60;99.90;;;;;;5117795;28;20215;-85
2023/01/14 08:01:34;;;;;;;90.40;50.50;;;6.60;99.90;;;;;;5115696;28;20179;-83
2023/01/14 08:03:59;;;;;;;96.33;52.33;;;6.70;99.90;;;;;;5115591;28;20684;-83
2023/01/14 08:06:25;;;;;;;93.87;52.87;;;6.70;99.90;;;;;;5116905;28;20424;-82
2023/01/14 08:08:51;;;;;;;100.40;52.40;;;6.70;99.90;;;;;;5116758;28;20279;-83
2023/01/14 08:11:17;;;;;;;99.10;55.47;;;6.70;99.90;;;;;;5116921;27;20415;-82
2023/01/14 08:13:43;;;;;;;97.70;53.70;;;6.70;99.90;;;;;;5115460;28;20204;-84
2023/01/14 08:16:09;;;;;;;100.60;52.47;;;6.70;99.90;;;;;;5116735;28;20392;-84
2023/01/14 08:18:38;;;;;;;86.65;50.60;;;6.70;99.90;;;;;;5116697;28;20458;-84
2023/01/14 08:21:06;;;;;;;84.93;48.83;;;6.80;99.90;;;;;;5116804;28;20160;-83
2023/01/14 08:23:33;;;;;;;88.57;48.80;;;6.80;99.90;;;;;;5116468;28;20553;-84
2023/01/14 08:26:04;;;;;;;93.15;50.58;;;6.80;99.90;;;;;;5116569;28;20172;-84
2023/01/14 08:28:30;;;;;;;85.10;48.13;;;6.90;99.90;;;;;;5115110;28;20268;-82
2023/01/14 08:31:03;;;;;;;80.95;47.50;;;6.90;99.90;;;;;;5115220;28;20279;-84
2023/01/14 08:33:29;;;;;;;80.75;48.28;;;6.90;99.90;;;;;;5116556;28;21332;-85
2023/01/14 08:35:55;;;;;;;82.30;45.40;;;6.90;99.90;;;;;;5115116;28;20739;-83
2023/01/14 08:38:20;;;;;;;79.03;46.00;;;7.00;99.90;;;;;;5116104;28;20199;-84
2023/01/14 08:40:48;;;;;;;82.67;48.73;;;7.00;99.90;;;;;;5115125;28;20645;-84
2023/01/14 08:43:14;;;;;;;83.63;46.22;;;7.00;99.90;;;;;;5113692;28;20584;-84
2023/01/14 08:45:42;;;;;;;85.82;45.40;;;7.00;99.90;;;;;;5116256;28;20595;-83
2023/01/14 08:48:08;;;;;;;80.38;45.60;;;7.00;99.90;;;;;;5116416;28;20261;-84
2023/01/14 08:50:33;;;;;;;75.93;45.13;;;7.10;99.90;;;;;;5116589;28;20644;-83
2023/01/14 08:52:59;;;;;;;79.27;45.37;;;7.10;99.90;;;;;;5114701;28;20562;-84
2023/01/14 08:55:25;;;;;;;78.40;44.60;;;7.10;99.90;;;;;;5116206;28;20292;-84
2023/01/14 08:57:51;;;;;;;81.60;46.88;;;7.10;99.90;;;;;;5116002;28;20190;-83
2023/01/14 09:00:17;;;;;;;79.70;46.63;;;7.10;99.90;;;;;;5116342;28;20632;-85
2023/01/14 09:02:43;;;;;;;75.50;44.75;;;7.30;99.90;;;;;;5114384;28;20548;-84
2023/01/14 09:05:09;;;;;;;82.67;44.30;;;7.30;99.90;;;;;;5114750;28;20229;-85
2023/01/14 09:18:35;;;;;;;72.95;43.30;;;8.10;99.90;;;;;;5115835;28;20210;-83
2023/01/14 09:21:01;;;;;;;80.63;42.42;;;8.30;99.90;;;;;;5117641;28;20293;-86
2023/01/14 09:23:27;;;;;;;64.03;40.03;;;8.50;99.90;;;;;;5114002;28;20302;-85
2023/01/14 09:25:52;;;;;;;61.80;37.90;;;8.70;99.90;;;;;;5114156;28;20975;-83
2023/01/14 09:28:18;;;;;;;59.17;37.70;;;9.00;99.90;;;;;;5115176;28;20187;-84
2023/01/14 09:30:45;;;;;;;59.13;35.27;;;9.20;99.90;;;;;;5113103;28;20283;-83
2023/01/14 09:33:11;;;;;;;59.67;35.78;;;9.50;99.90;;;;;;5113641;28;20221;-82
2023/01/14 09:35:39;;;;;;;55.47;37.08;;;9.70;99.90;;;;;;5115196;27;20179;-85
2023/01/14 09:38:05;;;;;;;56.95;35.60;;;9.90;99.90;;;;;;5113738;28;20200;-84
2023/01/14 09:40:35;;;;;;;62.10;36.00;;;9.90;99.90;;;;;;5113013;28;20514;-83
2023/01/14 09:43:00;;;;;;;56.63;34.72;;;10.10;99.90;;;;;;5115097;28;20713;-84
2023/01/14 09:45:34;;;;;;;50.90;32.73;;;10.20;99.90;;;;;;5114958;28;20172;-86
2023/01/14 09:48:04;;;;;;;56.13;34.15;;;10.30;99.90;;;;;;5112679;28;20203;-83
2023/01/14 09:50:42;;;;;;;53.28;33.47;;;10.30;99.90;;;;;;5113217;28;20578;-85
2023/01/14 09:53:26;;;;;;;67.47;38.88;;;10.30;99.90;;;;;;5112494;28;20268;-85
2023/01/14 09:55:56;;;;;;;63.67;36.28;;;10.20;99.90;;;;;;5111407;28;20242;-85
2023/01/14 09:58:39;;;;;;;61.65;36.92;;;10.10;99.90;;;;;;5112598;28;20233;-85
2023/01/14 10:01:22;;;;;;;55.58;31.20;;;10.00;99.90;;;;;;5113111;28;20168;-84
2023/01/14 10:04:33;;;;;;;53.38;30.52;;;9.90;99.90;;;;;;5114643;28;20760;-86
2023/01/14 10:07:01;;;;;;;56.33;29.13;;;9.80;99.90;;;;;;5115156;28;20176;-84
2023/01/14 10:09:49;;;;;;;52.55;29.83;;;9.70;99.90;;;;;;5113580;28;20203;-85
2023/01/14 10:12:25;;;;;;;61.13;32.55;;;9.60;99.90;;;;;;5112615;28;20210;-85
2023/01/14 10:15:03;;;;;;;51.53;29.88;;;9.50;99.90;;;;;;5114832;28;20207;-85
2023/01/14 10:17:36;;;;;;;56.03;31.67;;;9.40;99.90;;;;;;5114363;28;20195;-83
2023/01/14 10:20:23;;;;;;;49.53;28.60;;;9.30;99.90;;;;;;5114456;28;20171;-84
2023/01/14 10:23:10;;;;;;;49.85;29.30;;;9.40;99.90;;;;;;5113036;28;20227;-85
2023/01/14 10:25:37;;;;;;;50.20;27.17;;;9.40;99.90;;;;;;5114352;28;20636;-83
2023/01/14 10:28:04;;;;;;;43.60;25.48;;;9.50;99.90;;;;;;5114427;28;20195;-84
2023/01/14 10:30:35;;;;;;;48.50;28.23;;;9.50;99.90;;;;;;5113251;28;20648;-84
2023/01/14 10:33:05;;;;;;;45.95;26.88;;;9.50;99.90;;;;;;5114388;28;20198;-84
2023/01/14 10:35:37;;;;;;;51.22;27.70;;;9.50;99.90;;;;;;5114692;28;20171;-85
2023/01/14 10:38:04;;;;;;;44.90;27.02;;;9.50;99.90;;;;;;5114283;28;20575;-84
2023/01/14 10:40:31;;;;;;;46.03;25.50;;;9.70;99.90;;;;;;5114672;28;20179;-84
2023/01/14 10:42:58;;;;;;;41.72;24.15;;;9.80;99.90;;;;;;5113934;28;20573;-84
2023/01/14 10:45:25;;;;;;;40.38;23.50;;;9.90;99.90;;;;;;5114669;28;20265;-84
2023/01/14 10:47:56;;;;;;;41.33;24.77;;;10.00;99.90;;;;;;5112774;28;20192;-83
2023/01/14 10:50:27;;;;;;;42.28;26.73;;;10.10;99.90;;;;;;5113111;28;20183;-85
2023/01/14 10:52:53;;;;;;;45.42;29.30;;;10.20;99.90;;;;;;5114398;28;20192;-86
2023/01/14 10:55:25;;;;;;;42.83;27.15;;;10.30;99.90;;;;;;5112656;28;20252;-85
2023/01/14 10:58:08;;;;;;;35.97;23.27;;;10.40;99.90;;;;;;5112626;28;20750;-83
2023/01/14 11:00:46;;;;;;;37.22;24.90;;;10.40;99.90;;;;;;5112911;28;20208;-83
2023/01/14 11:03:25;;;;;;;42.42;24.15;;;10.50;99.90;;;;;;5112465;28;20691;-85
2023/01/14 11:06:06;;;;;;;40.28;25.50;;;10.50;99.90;;;;;;5114108;28;20545;-84
2023/01/14 11:08:33;;;;;;;39.70;23.88;;;10.60;99.90;;;;;;5118003;28;20203;-85
2023/01/14 11:11:04;;;;;;;41.33;24.27;;;10.70;99.90;;;;;;5116777;28;20172;-83
2023/01/14 11:13:41;;;;;;;37.45;24.05;;;10.80;99.90;;;;;;5116427;28;20221;-85
2023/01/14 11:16:29;;;;;;;38.38;24.30;;;10.80;99.90;;;;;;5118325;28;20180;-85
2023/01/14 11:18:57;;;;;;;40.38;23.80;;;10.90;99.90;;;;;;5117428;28;20735;-84
2023/01/14 11:21:24;;;;;;;39.53;23.27;;;11.00;99.90;;;;;;5117478;28;20213;-83
2023/01/14 11:23:59;;;;;;;42.40;25.17;;;11.00;99.90;;;;;;5117301;28;20696;-85
2023/01/14 11:26:35;;;;;;;38.28;24.17;;;11.00;99.90;;;;;;5116198;28;20167;-84
2023/01/14 11:29:07;;;;;;;39.22;23.80;;;11.00;99.90;;;;;;5116068;28;20203;-85
2023/01/14 11:31:38;;;;;;;36.85;22.42;;;11.00;99.90;;;;;;5116363;28;20201;-85
2023/01/14 11:34:12;;;;;;;39.28;23.35;;;11.00;99.90;;;;;;5116279;28;20203;-85
2023/01/14 11:36:38;;;;;;;35.83;23.27;;;11.10;99.90;;;;;;5116329;28;20163;-85
2023/01/14 11:39:04;;;;;;;34.77;22.60;;;11.10;99.90;;;;;;5113863;28;20251;-85
2023/01/14 11:41:32;;;;;;;34.03;23.37;;;11.20;99.90;;;;;;5115521;28;20677;-84
2023/01/14 11:44:02;;;;;;;29.42;18.55;;;11.20;99.90;;;;;;5113720;28;20229;-85
2023/01/14 11:46:28;;;;;;;27.27;17.33;;;11.30;99.90;;;;;;5115471;28;20175;-85
2023/01/14 11:49:14;;;;;;;23.57;15.93;;;11.40;99.90;;;;;;5113817;28;20678;-83
2023/01/14 11:51:40;;;;;;;23.83;16.20;;;11.50;99.90;;;;;;5116061;28;20396;-83
2023/01/14 11:54:18;;;;;;;20.15;15.85;;;11.60;99.90;;;;;;5119320;28;20463;-85
2023/01/14 11:56:46;;;;;;;22.60;15.13;;;11.70;99.90;;;;;;5117317;28;20699;-83
2023/01/14 11:59:23;;;;;;;23.88;17.20;;;11.70;99.90;;;;;;5117080;28;20199;-85
2023/01/14 12:01:53;;;;;;;30.25;19.38;;;11.80;99.90;;;;;;5115620;28;20171;-85
2023/01/14 12:04:24;;;;;;;28.20;18.60;;;11.90;99.90;;;;;;5115643;28;20247;-85
2023/01/14 12:07:05;;;;;;;29.40;20.33;;;11.90;99.90;;;;;;5116892;28;20391;-85
2023/01/14 12:09:50;;;;;;;33.70;22.30;;;12.00;99.90;;;;;;5117189;28;20168;-85
2023/01/14 12:18:36;;;;;;;35.27;21.80;;;12.10;99.90;;;;;;5116686;28;20427;-85
2023/01/14 12:21:04;;;;;;;33.10;22.23;;;12.10;99.90;;;;;;5116811;28;20396;-85
2023/01/14 12:23:41;;;;;;;32.60;22.80;;;12.10;99.90;;;;;;5116430;28;20479;-82
2023/01/14 12:26:16;;;;;;;34.63;22.90;;;12.10;99.90;;;;;;5115388;28;20745;-85
2023/01/14 12:28:47;;;;;;;29.10;19.80;;;12.10;99.90;;;;;;5116535;28;20443;-85
2023/01/14 12:31:39;;;;;;;44.80;26.83;;;12.10;99.90;;;;;;5117093;28;20400;-85
2023/01/14 12:34:11;;;;;;;32.83;22.17;;;12.10;99.90;;;;;;5116424;28;20421;-83
2023/01/14 12:36:48;;;;;;;31.97;21.93;;;12.10;99.90;;;;;;5115151;28;20426;-85
2023/01/14 12:46:02;;;;;;;29.07;22.07;;;12.10;99.90;;;;;;5117001;28;20487;-83
2023/01/14 12:48:31;;;;;;;27.33;19.13;;;12.10;99.90;;;;;;5093850;28;20443;-84
2023/01/14 12:51:05;;;;;;;27.30;20.97;;;12.10;99.90;;;;;;5116128;28;20479;-85
2023/01/14 12:53:49;;;;;;;28.37;20.50;;;12.10;99.90;;;;;;5115646;28;20434;-85
2023/01/14 12:56:29;;;;;;;29.00;19.50;;;12.20;99.90;;;;;;5114587;28;20631;-84
2023/01/14 12:59:07;;;;;;;27.20;19.50;;;12.20;99.90;;;;;;5116068;28;20876;-85
2023/01/14 13:01:48;;;;;;;31.53;21.17;;;12.30;99.90;;;;;;5114622;28;20461;-83
2023/01/14 13:04:22;;;;;;;29.30;19.93;;;12.30;99.90;;;;;;5114393;28;20495;-85
2023/01/14 13:06:55;;;;;;;24.37;18.40;;;12.30;99.90;;;;;;5115903;28;20383;-83
2023/01/14 13:09:26;;;;;;;25.50;18.30;;;12.20;99.90;;;;;;5116020;28;20416;-86
2023/01/14 13:11:54;;;;;;;24.87;16.37;;;12.20;99.90;;;;;;5115686;28;20392;-85
2023/01/14 13:14:34;;;;;;;24.40;16.73;;;12.30;99.90;;;;;;5114426;28;20431;-85
2023/01/14 13:17:03;;;;;;;26.13;17.20;;;12.30;99.90;;;;;;5116682;28;20506;-84
2023/01/14 13:19:34;;;;;;;22.77;17.20;;;12.30;99.90;;;;;;5117716;28;20454;-85
2023/01/14 13:22:04;;;;;;;27.10;17.77;;;12.20;99.90;;;;;;5114575;28;20781;-85
2023/01/14 13:24:37;;;;;;;20.20;14.43;;;12.20;99.90;;;;;;5114073;28;20528;-82
2023/01/14 13:27:34;;;;;;;22.67;15.73;;;12.30;99.90;;;;;;5113981;28;20416;-84
2023/01/14 13:30:18;;;;;;;21.23;13.80;;;12.40;99.90;;;;;;5107626;28;20478;-83
2023/01/14 13:32:59;;;;;;;20.53;15.77;;;12.30;99.90;;;;;;5115158;28;20511;-84